This is the latest recevied weather packets stored in our database for station/object CE4TQY-10. If no packets are shown the sender has not sent any weather packets the latest 10 day(s).
| Time | Temp. | Humidity | Pressure | Rain* | Wind** | Luminosity | Snow |
|---|---|---|---|---|---|---|---|
| 1777544010 | 11.11° C | 75% | 1014.6 hPa | - | - | - | - |
| 1777542209 | 11.11° C | 73% | 1014.7 hPa | - | - | - | - |
| 1777541308 | 11.11° C | 78% | 1014.7 hPa | - | - | - | - |
| 1777539506 | 11.11° C | 79% | 1012.1 hPa | - | - | - | - |
| 1777537704 | 11.11° C | 76% | 1014.6 hPa | - | - | - | - |
| 1777535902 | 12.78° C | 72% | 1014.6 hPa | - | - | - | - |
| 1777534100 | 11.67° C | 76% | 1014.8 hPa | - | - | - | - |
| 1777532299 | 12.22° C | 75% | 1014.9 hPa | - | - | - | - |
| 1777530496 | 13.33° C | 74% | 1014.9 hPa | - | - | - | - |
| 1777529595 | 13.33° C | 78% | 1014.8 hPa | - | - | - | - |
| 1777528694 | 13.33° C | 78% | 1012.9 hPa | - | - | - | - |
| 1777526893 | 13.89° C | 75% | 1015 hPa | - | - | - | - |
| 1777525992 | 13.33° C | 78% | 1012.8 hPa | - | - | - | - |
| 1777525090 | 13.33° C | 81% | 1011.7 hPa | - | - | - | - |
| 1777524189 | 13.33° C | 80% | 1012.4 hPa | - | - | - | - |
| 1777523288 | 13.89° C | 74% | 1015.2 hPa | - | - | - | - |
| 1777522388 | 13.89° C | 71% | 1015.3 hPa | - | - | - | - |
| 1777521486 | 13.89° C | 74% | 1015.4 hPa | - | - | - | - |
| 1777520586 | 13.89° C | 78% | 1013.6 hPa | - | - | - | - |
| 1777519685 | 13.89° C | 82% | 1011.9 hPa | - | - | - | - |
| 1777518784 | 13.89° C | 81% | 1012.2 hPa | - | - | - | - |
| 1777517883 | 13.89° C | 82% | 1012.2 hPa | - | - | - | - |
| 1777516982 | 14.44° C | 82% | 1012.2 hPa | - | - | - | - |
| 1777516081 | 14.44° C | 82% | 1012.3 hPa | - | - | - | - |
| 1777515180 | 14.44° C | 81% | 1012.5 hPa | - | - | - | - |
* Rain since midnight (hover to see other rain measurements)
** Current wind speed in m/s (hover to see current wind gust speed)